sensor_id;sensor_type;location;lat;lon;timestamp;P1;durP1;ratioP1;P2;durP2;ratioP2
59308;SDS011;48433;53.016;-2.260;2022-08-11T00:01:58;13.77;;;7.93;;
59308;SDS011;48433;53.016;-2.260;2022-08-11T00:04:27;18.00;;;8.52;;
59308;SDS011;48433;53.016;-2.260;2022-08-11T00:07:03;11.63;;;7.25;;
59308;SDS011;48433;53.016;-2.260;2022-08-11T00:09:35;14.50;;;8.63;;
59308;SDS011;48433;53.016;-2.260;2022-08-11T00:12:11;10.80;;;7.57;;
59308;SDS011;48433;53.016;-2.260;2022-08-11T00:14:41;13.02;;;7.75;;
59308;SDS011;48433;53.016;-2.260;2022-08-11T00:17:12;14.10;;;7.45;;
59308;SDS011;48433;53.016;-2.260;2022-08-11T00:19:45;14.43;;;7.47;;
59308;SDS011;48433;53.016;-2.260;2022-08-11T00:22:38;12.93;;;7.40;;
59308;SDS011;48433;53.016;-2.260;2022-08-11T00:25:09;12.32;;;8.68;;
59308;SDS011;48433;53.016;-2.260;2022-08-11T00:27:39;12.23;;;7.13;;
59308;SDS011;48433;53.016;-2.260;2022-08-11T00:30:08;12.82;;;7.55;;
59308;SDS011;48433;53.016;-2.260;2022-08-11T00:32:38;10.27;;;7.28;;
59308;SDS011;48433;53.016;-2.260;2022-08-11T00:35:10;13.10;;;7.73;;
59308;SDS011;48433;53.016;-2.260;2022-08-11T00:38:00;13.13;;;8.48;;
59308;SDS011;48433;53.016;-2.260;2022-08-11T00:44:03;14.20;;;6.95;;
59308;SDS011;48433;53.016;-2.260;2022-08-11T00:46:17;18.48;;;7.45;;
59308;SDS011;48433;53.016;-2.260;2022-08-11T00:52:12;12.02;;;6.95;;
59308;SDS011;48433;53.016;-2.260;2022-08-11T01:12:08;12.15;;;7.55;;
59308;SDS011;48433;53.016;-2.260;2022-08-11T01:46:22;11.90;;;7.90;;
59308;SDS011;48433;53.016;-2.260;2022-08-11T01:52:15;12.18;;;8.23;;
59308;SDS011;48433;53.016;-2.260;2022-08-11T01:58:13;20.13;;;8.80;;
59308;SDS011;48433;53.016;-2.260;2022-08-11T02:04:06;16.02;;;7.88;;
59308;SDS011;48433;53.016;-2.260;2022-08-11T02:06:52;10.00;;;7.43;;
59308;SDS011;48433;53.016;-2.260;2022-08-11T02:12:09;9.77;;;7.50;;
59308;SDS011;48433;53.016;-2.260;2022-08-11T02:15:00;11.43;;;8.05;;
59308;SDS011;48433;53.016;-2.260;2022-08-11T02:17:58;13.13;;;8.45;;
59308;SDS011;48433;53.016;-2.260;2022-08-11T02:26:53;13.13;;;7.57;;
59308;SDS011;48433;53.016;-2.260;2022-08-11T02:43:58;9.73;;;6.68;;
59308;SDS011;48433;53.016;-2.260;2022-08-11T02:46:36;12.18;;;7.90;;
59308;SDS011;48433;53.016;-2.260;2022-08-11T02:52:43;12.93;;;7.57;;
59308;SDS011;48433;53.016;-2.260;2022-08-11T02:58:45;10.13;;;6.40;;
59308;SDS011;48433;53.016;-2.260;2022-08-11T03:01:41;11.18;;;7.32;;
59308;SDS011;48433;53.016;-2.260;2022-08-11T03:05:05;14.00;;;7.40;;
59308;SDS011;48433;53.016;-2.260;2022-08-11T03:07:54;10.60;;;6.72;;
59308;SDS011;48433;53.016;-2.260;2022-08-11T03:11:00;14.25;;;7.55;;
59308;SDS011;48433;53.016;-2.260;2022-08-11T03:16:57;13.77;;;7.68;;
59308;SDS011;48433;53.016;-2.260;2022-08-11T03:19:47;11.15;;;7.57;;
59308;SDS011;48433;53.016;-2.260;2022-08-11T03:22:36;11.10;;;6.75;;
59308;SDS011;48433;53.016;-2.260;2022-08-11T03:25:23;11.45;;;6.60;;
59308;SDS011;48433;53.016;-2.260;2022-08-11T03:28:03;9.32;;;6.13;;
59308;SDS011;48433;53.016;-2.260;2022-08-11T03:30:45;10.10;;;5.38;;
59308;SDS011;48433;53.016;-2.260;2022-08-11T03:33:22;10.35;;;5.47;;
59308;SDS011;48433;53.016;-2.260;2022-08-11T03:42:05;10.65;;;5.60;;
59308;SDS011;48433;53.016;-2.260;2022-08-11T03:50:23;9.07;;;5.30;;
59308;SDS011;48433;53.016;-2.260;2022-08-11T03:58:39;11.18;;;5.18;;
59308;SDS011;48433;53.016;-2.260;2022-08-11T04:07:59;9.43;;;4.88;;
59308;SDS011;48433;53.016;-2.260;2022-08-11T04:49:09;11.57;;;5.28;;
59308;SDS011;48433;53.016;-2.260;2022-08-11T04:58:46;13.43;;;5.45;;
59308;SDS011;48433;53.016;-2.260;2022-08-11T05:01:54;11.27;;;5.10;;
59308;SDS011;48433;53.016;-2.260;2022-08-11T05:05:02;12.35;;;5.80;;
59308;SDS011;48433;53.016;-2.260;2022-08-11T05:13:41;8.60;;;5.30;;
59308;SDS011;48433;53.016;-2.260;2022-08-11T05:16:45;10.38;;;4.68;;
59308;SDS011;48433;53.016;-2.260;2022-08-11T05:19:36;13.65;;;5.63;;
59308;SDS011;48433;53.016;-2.260;2022-08-11T05:22:25;11.55;;;4.97;;
59308;SDS011;48433;53.016;-2.260;2022-08-11T05:25:33;8.85;;;4.57;;
59308;SDS011;48433;53.016;-2.260;2022-08-11T05:28:43;9.70;;;5.22;;
59308;SDS011;48433;53.016;-2.260;2022-08-11T05:31:49;9.65;;;5.25;;
59308;SDS011;48433;53.016;-2.260;2022-08-11T05:34:50;15.38;;;6.63;;
59308;SDS011;48433;53.016;-2.260;2022-08-11T05:39:59;11.55;;;5.20;;
59308;SDS011;48433;53.016;-2.260;2022-08-11T05:42:49;11.52;;;5.35;;
59308;SDS011;48433;53.016;-2.260;2022-08-11T05:45:39;9.55;;;5.40;;
59308;SDS011;48433;53.016;-2.260;2022-08-11T05:48:32;11.93;;;5.43;;
59308;SDS011;48433;53.016;-2.260;2022-08-11T05:51:20;7.53;;;4.35;;
59308;SDS011;48433;53.016;-2.260;2022-08-11T05:54:22;10.93;;;5.63;;
59308;SDS011;48433;53.016;-2.260;2022-08-11T05:57:19;10.45;;;5.72;;
59308;SDS011;48433;53.016;-2.260;2022-08-11T06:00:09;12.35;;;5.95;;
59308;SDS011;48433;53.016;-2.260;2022-08-11T06:02:41;12.02;;;6.35;;
59308;SDS011;48433;53.016;-2.260;2022-08-11T06:05:12;12.27;;;6.00;;
59308;SDS011;48433;53.016;-2.260;2022-08-11T06:07:40;19.52;;;7.03;;
59308;SDS011;48433;53.016;-2.260;2022-08-11T06:10:37;16.40;;;6.93;;
59308;SDS011;48433;53.016;-2.260;2022-08-11T06:13:07;12.95;;;5.05;;
59308;SDS011;48433;53.016;-2.260;2022-08-11T06:15:47;17.67;;;6.13;;
59308;SDS011;48433;53.016;-2.260;2022-08-11T06:18:16;11.02;;;6.28;;
59308;SDS011;48433;53.016;-2.260;2022-08-11T06:20:48;21.85;;;6.75;;
59308;SDS011;48433;53.016;-2.260;2022-08-11T06:23:24;13.73;;;5.63;;
59308;SDS011;48433;53.016;-2.260;2022-08-11T06:25:58;11.10;;;6.05;;
59308;SDS011;48433;53.016;-2.260;2022-08-11T06:28:27;15.90;;;6.38;;
59308;SDS011;48433;53.016;-2.260;2022-08-11T06:36:04;18.38;;;6.50;;
59308;SDS011;48433;53.016;-2.260;2022-08-11T06:41:27;22.02;;;7.00;;
59308;SDS011;48433;53.016;-2.260;2022-08-11T06:46:40;18.80;;;7.00;;
59308;SDS011;48433;53.016;-2.260;2022-08-11T06:49:10;15.53;;;6.70;;
59308;SDS011;48433;53.016;-2.260;2022-08-11T06:52:00;13.80;;;5.72;;
59308;SDS011;48433;53.016;-2.260;2022-08-11T06:54:31;15.82;;;5.65;;
59308;SDS011;48433;53.016;-2.260;2022-08-11T06:57:02;15.07;;;5.97;;
59308;SDS011;48433;53.016;-2.260;2022-08-11T06:59:56;13.30;;;6.15;;
59308;SDS011;48433;53.016;-2.260;2022-08-11T07:02:56;12.55;;;5.22;;
59308;SDS011;48433;53.016;-2.260;2022-08-11T07:15:12;14.82;;;5.13;;
59308;SDS011;48433;53.016;-2.260;2022-08-11T07:18:20;12.13;;;4.97;;
59308;SDS011;48433;53.016;-2.260;2022-08-11T07:21:12;13.70;;;5.05;;
59308;SDS011;48433;53.016;-2.260;2022-08-11T07:24:28;9.43;;;4.15;;
59308;SDS011;48433;53.016;-2.260;2022-08-11T07:30:44;10.30;;;3.60;;
59308;SDS011;48433;53.016;-2.260;2022-08-11T07:33:18;9.60;;;3.28;;
59308;SDS011;48433;53.016;-2.260;2022-08-11T07:36:12;12.45;;;3.55;;
59308;SDS011;48433;53.016;-2.260;2022-08-11T07:38:42;12.10;;;3.53;;
59308;SDS011;48433;53.016;-2.260;2022-08-11T07:41:17;9.57;;;3.88;;
59308;SDS011;48433;53.016;-2.260;2022-08-11T07:43:49;12.15;;;4.00;;
59308;SDS011;48433;53.016;-2.260;2022-08-11T07:46:21;19.20;;;4.38;;
59308;SDS011;48433;53.016;-2.260;2022-08-11T07:49:09;10.90;;;4.55;;
59308;SDS011;48433;53.016;-2.260;2022-08-11T07:51:55;17.30;;;4.55;;
59308;SDS011;48433;53.016;-2.260;2022-08-11T07:54:43;9.20;;;3.53;;
59308;SDS011;48433;53.016;-2.260;2022-08-11T07:57:17;10.30;;;4.03;;
59308;SDS011;48433;53.016;-2.260;2022-08-11T08:00:24;9.50;;;3.60;;
59308;SDS011;48433;53.016;-2.260;2022-08-11T08:03:17;10.02;;;4.07;;
59308;SDS011;48433;53.016;-2.260;2022-08-11T08:06:20;13.50;;;4.00;;
59308;SDS011;48433;53.016;-2.260;2022-08-11T08:09:08;12.65;;;4.13;;
59308;SDS011;48433;53.016;-2.260;2022-08-11T08:11:55;10.85;;;3.90;;
59308;SDS011;48433;53.016;-2.260;2022-08-11T08:14:41;12.23;;;4.20;;
59308;SDS011;48433;53.016;-2.260;2022-08-11T08:17:28;8.55;;;3.85;;
59308;SDS011;48433;53.016;-2.260;2022-08-11T08:20:37;6.47;;;3.20;;
59308;SDS011;48433;53.016;-2.260;2022-08-11T08:23:10;8.45;;;3.33;;
59308;SDS011;48433;53.016;-2.260;2022-08-11T08:25:39;10.90;;;3.40;;
59308;SDS011;48433;53.016;-2.260;2022-08-11T08:28:10;9.98;;;3.92;;
59308;SDS011;48433;53.016;-2.260;2022-08-11T08:30:42;8.40;;;3.13;;
59308;SDS011;48433;53.016;-2.260;2022-08-11T08:33:29;12.93;;;3.20;;
59308;SDS011;48433;53.016;-2.260;2022-08-11T08:36:01;7.20;;;3.03;;
59308;SDS011;48433;53.016;-2.260;2022-08-11T08:38:57;10.55;;;2.78;;
59308;SDS011;48433;53.016;-2.260;2022-08-11T08:41:29;8.60;;;3.00;;
59308;SDS011;48433;53.016;-2.260;2022-08-11T08:44:02;8.52;;;2.50;;
59308;SDS011;48433;53.016;-2.260;2022-08-11T08:46:54;6.13;;;2.70;;
59308;SDS011;48433;53.016;-2.260;2022-08-11T08:49:25;11.00;;;2.73;;
59308;SDS011;48433;53.016;-2.260;2022-08-11T08:52:07;8.40;;;2.92;;
59308;SDS011;48433;53.016;-2.260;2022-08-11T08:54:59;8.18;;;3.13;;
59308;SDS011;48433;53.016;-2.260;2022-08-11T08:57:29;9.00;;;3.30;;
59308;SDS011;48433;53.016;-2.260;2022-08-11T09:00:06;10.77;;;2.65;;
59308;SDS011;48433;53.016;-2.260;2022-08-11T09:02:38;11.65;;;3.10;;
59308;SDS011;48433;53.016;-2.260;2022-08-11T09:05:06;7.53;;;2.83;;
59308;SDS011;48433;53.016;-2.260;2022-08-11T09:07:36;11.05;;;3.38;;
59308;SDS011;48433;53.016;-2.260;2022-08-11T09:10:07;11.35;;;3.08;;
59308;SDS011;48433;53.016;-2.260;2022-08-11T09:12:37;7.40;;;2.80;;
59308;SDS011;48433;53.016;-2.260;2022-08-11T09:15:06;6.95;;;2.70;;
59308;SDS011;48433;53.016;-2.260;2022-08-11T09:17:38;8.00;;;2.83;;
59308;SDS011;48433;53.016;-2.260;2022-08-11T09:20:23;9.18;;;2.88;;
59308;SDS011;48433;53.016;-2.260;2022-08-11T09:22:56;8.25;;;2.40;;
59308;SDS011;48433;53.016;-2.260;2022-08-11T09:26:03;8.98;;;3.10;;
59308;SDS011;48433;53.016;-2.260;2022-08-11T09:28:57;8.50;;;2.95;;
59308;SDS011;48433;53.016;-2.260;2022-08-11T09:31:29;8.35;;;2.63;;
59308;SDS011;48433;53.016;-2.260;2022-08-11T09:34:06;10.00;;;2.72;;
59308;SDS011;48433;53.016;-2.260;2022-08-11T09:36:40;8.55;;;2.70;;
59308;SDS011;48433;53.016;-2.260;2022-08-11T09:39:28;9.10;;;2.67;;
59308;SDS011;48433;53.016;-2.260;2022-08-11T09:42:16;6.90;;;2.58;;
59308;SDS011;48433;53.016;-2.260;2022-08-11T09:44:49;7.22;;;2.83;;
59308;SDS011;48433;53.016;-2.260;2022-08-11T09:49:52;7.82;;;2.58;;
59308;SDS011;48433;53.016;-2.260;2022-08-11T09:52:27;7.65;;;2.50;;
59308;SDS011;48433;53.016;-2.260;2022-08-11T09:54:58;13.48;;;3.35;;
59308;SDS011;48433;53.016;-2.260;2022-08-11T09:57:26;9.05;;;2.50;;
59308;SDS011;48433;53.016;-2.260;2022-08-11T10:00:13;8.73;;;2.70;;
59308;SDS011;48433;53.016;-2.260;2022-08-11T10:02:45;8.40;;;2.38;;
59308;SDS011;48433;53.016;-2.260;2022-08-11T10:05:17;8.85;;;2.55;;
59308;SDS011;48433;53.016;-2.260;2022-08-11T10:08:06;6.75;;;2.20;;
59308;SDS011;48433;53.016;-2.260;2022-08-11T10:10:39;6.85;;;2.05;;
59308;SDS011;48433;53.016;-2.260;2022-08-11T10:13:08;8.18;;;2.00;;
59308;SDS011;48433;53.016;-2.260;2022-08-11T10:16:01;8.00;;;1.95;;
59308;SDS011;48433;53.016;-2.260;2022-08-11T10:18:43;8.38;;;2.58;;
59308;SDS011;48433;53.016;-2.260;2022-08-11T10:21:23;6.10;;;1.88;;
59308;SDS011;48433;53.016;-2.260;2022-08-11T10:23:58;6.60;;;2.60;;
59308;SDS011;48433;53.016;-2.260;2022-08-11T10:26:46;7.57;;;2.25;;
59308;SDS011;48433;53.016;-2.260;2022-08-11T10:32:20;6.95;;;2.30;;
59308;SDS011;48433;53.016;-2.260;2022-08-11T10:35:24;7.38;;;2.25;;
59308;SDS011;48433;53.016;-2.260;2022-08-11T10:37:52;5.65;;;2.13;;
59308;SDS011;48433;53.016;-2.260;2022-08-11T10:40:44;5.50;;;2.15;;
59308;SDS011;48433;53.016;-2.260;2022-08-11T10:43:34;7.78;;;2.65;;
59308;SDS011;48433;53.016;-2.260;2022-08-11T10:49:10;6.40;;;2.50;;
59308;SDS011;48433;53.016;-2.260;2022-08-11T10:51:37;10.30;;;2.65;;
59308;SDS011;48433;53.016;-2.260;2022-08-11T10:54:24;6.45;;;2.33;;
59308;SDS011;48433;53.016;-2.260;2022-08-11T10:57:11;8.05;;;2.35;;
59308;SDS011;48433;53.016;-2.260;2022-08-11T11:00:00;8.15;;;2.30;;
59308;SDS011;48433;53.016;-2.260;2022-08-11T11:02:28;10.38;;;2.90;;
59308;SDS011;48433;53.016;-2.260;2022-08-11T11:07:37;5.82;;;2.47;;
59308;SDS011;48433;53.016;-2.260;2022-08-11T11:10:13;8.23;;;2.42;;
59308;SDS011;48433;53.016;-2.260;2022-08-11T11:12:43;7.45;;;2.55;;
59308;SDS011;48433;53.016;-2.260;2022-08-11T11:15:32;10.00;;;3.03;;
59308;SDS011;48433;53.016;-2.260;2022-08-11T11:18:23;8.48;;;2.65;;
59308;SDS011;48433;53.016;-2.260;2022-08-11T11:20:56;6.57;;;2.53;;
59308;SDS011;48433;53.016;-2.260;2022-08-11T11:23:48;4.90;;;2.20;;
59308;SDS011;48433;53.016;-2.260;2022-08-11T11:29:02;8.45;;;2.53;;
59308;SDS011;48433;53.016;-2.260;2022-08-11T11:32:08;10.05;;;2.70;;
59308;SDS011;48433;53.016;-2.260;2022-08-11T11:37:45;7.43;;;2.33;;
59308;SDS011;48433;53.016;-2.260;2022-08-11T11:40:31;6.43;;;2.50;;
59308;SDS011;48433;53.016;-2.260;2022-08-11T11:42:59;7.57;;;2.70;;
59308;SDS011;48433;53.016;-2.260;2022-08-11T11:45:28;6.07;;;2.28;;
59308;SDS011;48433;53.016;-2.260;2022-08-11T11:47:57;6.68;;;2.10;;
59308;SDS011;48433;53.016;-2.260;2022-08-11T11:50:27;7.05;;;2.55;;
59308;SDS011;48433;53.016;-2.260;2022-08-11T11:53:05;7.15;;;2.20;;
59308;SDS011;48433;53.016;-2.260;2022-08-11T11:55:35;6.88;;;2.47;;
59308;SDS011;48433;53.016;-2.260;2022-08-11T11:58:03;7.25;;;2.38;;
59308;SDS011;48433;53.016;-2.260;2022-08-11T12:00:51;6.78;;;2.30;;
59308;SDS011;48433;53.016;-2.260;2022-08-11T12:03:38;6.47;;;2.30;;
59308;SDS011;48433;53.016;-2.260;2022-08-11T12:06:07;5.95;;;2.05;;
59308;SDS011;48433;53.016;-2.260;2022-08-11T12:08:38;7.40;;;2.20;;
59308;SDS011;48433;53.016;-2.260;2022-08-11T12:11:10;6.33;;;2.50;;
59308;SDS011;48433;53.016;-2.260;2022-08-11T12:13:58;6.32;;;2.72;;
59308;SDS011;48433;53.016;-2.260;2022-08-11T12:16:30;7.95;;;2.25;;
59308;SDS011;48433;53.016;-2.260;2022-08-11T12:19:04;8.13;;;2.53;;
59308;SDS011;48433;53.016;-2.260;2022-08-11T12:24:29;11.00;;;3.13;;
59308;SDS011;48433;53.016;-2.260;2022-08-11T12:27:16;12.18;;;3.00;;
59308;SDS011;48433;53.016;-2.260;2022-08-11T12:29:53;5.53;;;2.65;;
59308;SDS011;48433;53.016;-2.260;2022-08-11T12:32:32;7.25;;;2.50;;
59308;SDS011;48433;53.016;-2.260;2022-08-11T12:35:02;5.07;;;2.35;;
59308;SDS011;48433;53.016;-2.260;2022-08-11T12:37:34;6.00;;;2.20;;
59308;SDS011;48433;53.016;-2.260;2022-08-11T12:40:09;6.10;;;2.70;;
59308;SDS011;48433;53.016;-2.260;2022-08-11T12:43:21;5.18;;;2.20;;
59308;SDS011;48433;53.016;-2.260;2022-08-11T12:46:09;5.03;;;2.28;;
59308;SDS011;48433;53.016;-2.260;2022-08-11T12:49:13;6.07;;;2.38;;
59308;SDS011;48433;53.016;-2.260;2022-08-11T12:52:13;8.93;;;2.53;;
59308;SDS011;48433;53.016;-2.260;2022-08-11T12:54:55;8.65;;;2.08;;
59308;SDS011;48433;53.016;-2.260;2022-08-11T12:57:29;9.45;;;2.50;;
59308;SDS011;48433;53.016;-2.260;2022-08-11T13:00:16;5.18;;;2.30;;
59308;SDS011;48433;53.016;-2.260;2022-08-11T13:03:04;6.00;;;2.38;;
59308;SDS011;48433;53.016;-2.260;2022-08-11T13:05:53;5.53;;;2.20;;
59308;SDS011;48433;53.016;-2.260;2022-08-11T13:08:23;7.10;;;2.67;;
59308;SDS011;48433;53.016;-2.260;2022-08-11T13:10:53;12.05;;;2.88;;
59308;SDS011;48433;53.016;-2.260;2022-08-11T13:13:40;6.70;;;2.75;;
59308;SDS011;48433;53.016;-2.260;2022-08-11T13:16:24;8.25;;;2.70;;
59308;SDS011;48433;53.016;-2.260;2022-08-11T13:18:56;5.75;;;2.13;;
59308;SDS011;48433;53.016;-2.260;2022-08-11T13:21:27;7.03;;;2.30;;
59308;SDS011;48433;53.016;-2.260;2022-08-11T13:23:56;7.88;;;2.58;;
59308;SDS011;48433;53.016;-2.260;2022-08-11T13:26:33;7.65;;;2.45;;
59308;SDS011;48433;53.016;-2.260;2022-08-11T13:29:16;6.68;;;2.53;;
59308;SDS011;48433;53.016;-2.260;2022-08-11T13:31:49;7.47;;;2.33;;
59308;SDS011;48433;53.016;-2.260;2022-08-11T13:34:20;5.53;;;2.40;;
59308;SDS011;48433;53.016;-2.260;2022-08-11T13:36:52;7.78;;;2.42;;
59308;SDS011;48433;53.016;-2.260;2022-08-11T13:39:22;5.57;;;2.25;;
59308;SDS011;48433;53.016;-2.260;2022-08-11T13:41:53;6.88;;;2.38;;
59308;SDS011;48433;53.016;-2.260;2022-08-11T13:44:23;6.25;;;2.20;;
59308;SDS011;48433;53.016;-2.260;2022-08-11T13:46:57;7.75;;;2.80;;
59308;SDS011;48433;53.016;-2.260;2022-08-11T13:49:29;6.10;;;2.53;;
59308;SDS011;48433;53.016;-2.260;2022-08-11T13:54:30;4.65;;;2.10;;
59308;SDS011;48433;53.016;-2.260;2022-08-11T13:57:04;6.30;;;2.05;;
59308;SDS011;48433;53.016;-2.260;2022-08-11T13:59:35;7.22;;;2.08;;
59308;SDS011;48433;53.016;-2.260;2022-08-11T14:02:26;5.80;;;2.40;;
59308;SDS011;48433;53.016;-2.260;2022-08-11T14:04:57;6.30;;;2.15;;
59308;SDS011;48433;53.016;-2.260;2022-08-11T14:07:41;9.97;;;1.87;;
59308;SDS011;48433;53.016;-2.260;2022-08-11T14:10:18;6.82;;;2.10;;
59308;SDS011;48433;53.016;-2.260;2022-08-11T14:12:53;9.35;;;2.25;;
59308;SDS011;48433;53.016;-2.260;2022-08-11T14:15:47;5.43;;;2.30;;
59308;SDS011;48433;53.016;-2.260;2022-08-11T14:18:17;4.78;;;2.00;;
59308;SDS011;48433;53.016;-2.260;2022-08-11T14:20:54;6.20;;;2.90;;
59308;SDS011;48433;53.016;-2.260;2022-08-11T14:23:42;9.35;;;2.10;;
59308;SDS011;48433;53.016;-2.260;2022-08-11T14:26:13;11.23;;;2.63;;
59308;SDS011;48433;53.016;-2.260;2022-08-11T14:28:59;7.40;;;2.08;;
59308;SDS011;48433;53.016;-2.260;2022-08-11T14:31:28;9.73;;;2.25;;
59308;SDS011;48433;53.016;-2.260;2022-08-11T14:36:29;7.00;;;2.10;;
59308;SDS011;48433;53.016;-2.260;2022-08-11T14:39:00;7.47;;;2.08;;
59308;SDS011;48433;53.016;-2.260;2022-08-11T14:42:03;7.32;;;2.20;;
59308;SDS011;48433;53.016;-2.260;2022-08-11T14:44:55;7.40;;;2.10;;
59308;SDS011;48433;53.016;-2.260;2022-08-11T14:47:45;5.80;;;1.98;;
59308;SDS011;48433;53.016;-2.260;2022-08-11T14:50:16;5.07;;;1.95;;
59308;SDS011;48433;53.016;-2.260;2022-08-11T14:52:51;5.45;;;2.28;;
59308;SDS011;48433;53.016;-2.260;2022-08-11T14:55:23;6.72;;;1.80;;
59308;SDS011;48433;53.016;-2.260;2022-08-11T14:58:14;7.40;;;2.10;;
59308;SDS011;48433;53.016;-2.260;2022-08-11T15:00:44;5.10;;;1.80;;
59308;SDS011;48433;53.016;-2.260;2022-08-11T15:03:13;6.47;;;2.20;;
59308;SDS011;48433;53.016;-2.260;2022-08-11T15:05:46;4.85;;;2.00;;
59308;SDS011;48433;53.016;-2.260;2022-08-11T15:08:27;5.00;;;1.92;;
59308;SDS011;48433;53.016;-2.260;2022-08-11T15:11:16;7.00;;;2.45;;
59308;SDS011;48433;53.016;-2.260;2022-08-11T15:14:05;6.35;;;2.13;;
59308;SDS011;48433;53.016;-2.260;2022-08-11T15:16:39;5.18;;;1.90;;
59308;SDS011;48433;53.016;-2.260;2022-08-11T15:19:27;6.22;;;2.30;;
59308;SDS011;48433;53.016;-2.260;2022-08-11T15:22:07;6.50;;;1.90;;
59308;SDS011;48433;53.016;-2.260;2022-08-11T15:24:56;5.70;;;2.30;;
59308;SDS011;48433;53.016;-2.260;2022-08-11T15:27:25;6.38;;;2.50;;
59308;SDS011;48433;53.016;-2.260;2022-08-11T15:30:18;5.22;;;2.25;;
59308;SDS011;48433;53.016;-2.260;2022-08-11T15:33:06;7.03;;;2.50;;
59308;SDS011;48433;53.016;-2.260;2022-08-11T15:35:55;12.63;;;6.83;;
59308;SDS011;48433;53.016;-2.260;2022-08-11T15:38:43;8.98;;;2.25;;
59308;SDS011;48433;53.016;-2.260;2022-08-11T15:41:22;6.23;;;2.07;;
59308;SDS011;48433;53.016;-2.260;2022-08-11T15:44:26;4.63;;;1.95;;
59308;SDS011;48433;53.016;-2.260;2022-08-11T15:47:33;5.32;;;2.17;;
59308;SDS011;48433;53.016;-2.260;2022-08-11T15:50:09;7.35;;;2.00;;
59308;SDS011;48433;53.016;-2.260;2022-08-11T15:52:50;5.60;;;2.47;;
59308;SDS011;48433;53.016;-2.260;2022-08-11T15:57:50;7.68;;;2.28;;
59308;SDS011;48433;53.016;-2.260;2022-08-11T16:00:39;6.28;;;1.90;;
59308;SDS011;48433;53.016;-2.260;2022-08-11T16:03:38;5.15;;;1.80;;
59308;SDS011;48433;53.016;-2.260;2022-08-11T16:06:38;6.45;;;2.30;;
59308;SDS011;48433;53.016;-2.260;2022-08-11T16:12:20;5.68;;;2.47;;
59308;SDS011;48433;53.016;-2.260;2022-08-11T16:14:58;5.85;;;2.08;;
59308;SDS011;48433;53.016;-2.260;2022-08-11T16:17:51;5.00;;;2.00;;
59308;SDS011;48433;53.016;-2.260;2022-08-11T16:20:25;6.07;;;2.35;;
59308;SDS011;48433;53.016;-2.260;2022-08-11T16:22:56;6.50;;;2.20;;
59308;SDS011;48433;53.016;-2.260;2022-08-11T16:25:28;9.60;;;2.50;;
59308;SDS011;48433;53.016;-2.260;2022-08-11T16:28:20;7.95;;;2.17;;
59308;SDS011;48433;53.016;-2.260;2022-08-11T16:30:49;7.85;;;2.15;;
59308;SDS011;48433;53.016;-2.260;2022-08-11T16:33:17;4.28;;;1.80;;
59308;SDS011;48433;53.016;-2.260;2022-08-11T16:36:09;9.98;;;2.55;;
59308;SDS011;48433;53.016;-2.260;2022-08-11T16:38:57;5.32;;;2.00;;
59308;SDS011;48433;53.016;-2.260;2022-08-11T16:41:26;4.68;;;1.90;;
59308;SDS011;48433;53.016;-2.260;2022-08-11T16:44:16;3.97;;;1.80;;
59308;SDS011;48433;53.016;-2.260;2022-08-11T16:47:05;7.18;;;2.10;;
59308;SDS011;48433;53.016;-2.260;2022-08-11T16:49:43;5.63;;;2.05;;
59308;SDS011;48433;53.016;-2.260;2022-08-11T16:52:19;5.05;;;2.00;;
59308;SDS011;48433;53.016;-2.260;2022-08-11T16:54:48;8.18;;;2.20;;
59308;SDS011;48433;53.016;-2.260;2022-08-11T17:00:12;6.55;;;2.40;;
59308;SDS011;48433;53.016;-2.260;2022-08-11T17:02:45;5.03;;;1.92;;
59308;SDS011;48433;53.016;-2.260;2022-08-11T17:05:35;7.13;;;1.80;;
59308;SDS011;48433;53.016;-2.260;2022-08-11T17:08:31;6.97;;;1.83;;
59308;SDS011;48433;53.016;-2.260;2022-08-11T17:11:43;6.80;;;1.75;;
59308;SDS011;48433;53.016;-2.260;2022-08-11T17:14:37;6.10;;;1.85;;
59308;SDS011;48433;53.016;-2.260;2022-08-11T17:17:12;5.03;;;1.75;;
59308;SDS011;48433;53.016;-2.260;2022-08-11T17:20:02;5.95;;;2.20;;
59308;SDS011;48433;53.016;-2.260;2022-08-11T17:22:55;6.40;;;2.03;;
59308;SDS011;48433;53.016;-2.260;2022-08-11T17:25:43;5.15;;;2.10;;
59308;SDS011;48433;53.016;-2.260;2022-08-11T17:28:30;6.47;;;2.15;;
59308;SDS011;48433;53.016;-2.260;2022-08-11T17:31:00;6.90;;;2.17;;
59308;SDS011;48433;53.016;-2.260;2022-08-11T17:33:49;6.28;;;1.95;;
59308;SDS011;48433;53.016;-2.260;2022-08-11T17:36:36;6.13;;;1.77;;
59308;SDS011;48433;53.016;-2.260;2022-08-11T17:39:11;4.78;;;2.00;;
59308;SDS011;48433;53.016;-2.260;2022-08-11T17:41:40;8.40;;;2.00;;
59308;SDS011;48433;53.016;-2.260;2022-08-11T17:44:28;5.53;;;2.17;;
59308;SDS011;48433;53.016;-2.260;2022-08-11T17:47:16;6.25;;;2.58;;
59308;SDS011;48433;53.016;-2.260;2022-08-11T17:50:04;5.25;;;1.88;;
59308;SDS011;48433;53.016;-2.260;2022-08-11T17:52:44;6.43;;;1.77;;
59308;SDS011;48433;53.016;-2.260;2022-08-11T17:55:34;5.68;;;1.83;;
59308;SDS011;48433;53.016;-2.260;2022-08-11T17:58:37;5.13;;;1.77;;
59308;SDS011;48433;53.016;-2.260;2022-08-11T18:01:25;6.75;;;2.47;;
59308;SDS011;48433;53.016;-2.260;2022-08-11T18:04:05;5.45;;;1.88;;
59308;SDS011;48433;53.016;-2.260;2022-08-11T18:06:35;6.88;;;2.08;;
59308;SDS011;48433;53.016;-2.260;2022-08-11T18:09:06;6.90;;;1.80;;
59308;SDS011;48433;53.016;-2.260;2022-08-11T18:11:54;4.13;;;1.55;;
59308;SDS011;48433;53.016;-2.260;2022-08-11T18:14:44;5.65;;;1.75;;
59308;SDS011;48433;53.016;-2.260;2022-08-11T18:17:34;10.75;;;1.98;;
59308;SDS011;48433;53.016;-2.260;2022-08-11T18:20:22;6.35;;;1.80;;
59308;SDS011;48433;53.016;-2.260;2022-08-11T18:23:10;8.02;;;2.00;;
59308;SDS011;48433;53.016;-2.260;2022-08-11T18:26:14;5.65;;;1.60;;
59308;SDS011;48433;53.016;-2.260;2022-08-11T18:29:05;7.57;;;1.98;;
59308;SDS011;48433;53.016;-2.260;2022-08-11T18:31:53;6.22;;;1.80;;
59308;SDS011;48433;53.016;-2.260;2022-08-11T18:34:49;5.78;;;1.92;;
59308;SDS011;48433;53.016;-2.260;2022-08-11T18:37:42;7.88;;;2.10;;
59308;SDS011;48433;53.016;-2.260;2022-08-11T18:40:31;8.38;;;1.98;;
59308;SDS011;48433;53.016;-2.260;2022-08-11T18:43:21;7.82;;;1.95;;
59308;SDS011;48433;53.016;-2.260;2022-08-11T18:46:10;5.43;;;1.77;;
59308;SDS011;48433;53.016;-2.260;2022-08-11T18:49:16;6.20;;;1.60;;
59308;SDS011;48433;53.016;-2.260;2022-08-11T18:58:26;6.40;;;1.95;;
59308;SDS011;48433;53.016;-2.260;2022-08-11T19:01:14;6.55;;;3.05;;
59308;SDS011;48433;53.016;-2.260;2022-08-11T19:04:01;6.10;;;2.00;;
59308;SDS011;48433;53.016;-2.260;2022-08-11T19:06:56;5.95;;;1.73;;
59308;SDS011;48433;53.016;-2.260;2022-08-11T19:09:46;6.93;;;2.40;;
59308;SDS011;48433;53.016;-2.260;2022-08-11T19:12:35;5.25;;;1.98;;
59308;SDS011;48433;53.016;-2.260;2022-08-11T19:15:25;6.55;;;1.85;;
59308;SDS011;48433;53.016;-2.260;2022-08-11T19:18:14;8.77;;;2.30;;
59308;SDS011;48433;53.016;-2.260;2022-08-11T19:21:04;6.07;;;2.20;;
59308;SDS011;48433;53.016;-2.260;2022-08-11T19:23:53;9.07;;;2.13;;
59308;SDS011;48433;53.016;-2.260;2022-08-11T19:26:43;5.60;;;2.00;;
59308;SDS011;48433;53.016;-2.260;2022-08-11T19:29:30;9.35;;;3.00;;
59308;SDS011;48433;53.016;-2.260;2022-08-11T19:32:39;5.47;;;2.33;;
59308;SDS011;48433;53.016;-2.260;2022-08-11T19:35:26;5.18;;;1.70;;
59308;SDS011;48433;53.016;-2.260;2022-08-11T19:38:14;10.98;;;2.35;;
59308;SDS011;48433;53.016;-2.260;2022-08-11T19:41:01;6.15;;;2.22;;
59308;SDS011;48433;53.016;-2.260;2022-08-11T19:44:09;10.60;;;2.10;;
59308;SDS011;48433;53.016;-2.260;2022-08-11T19:46:56;7.15;;;2.58;;
59308;SDS011;48433;53.016;-2.260;2022-08-11T19:49:44;8.73;;;2.20;;
59308;SDS011;48433;53.016;-2.260;2022-08-11T19:52:32;5.40;;;2.15;;
59308;SDS011;48433;53.016;-2.260;2022-08-11T19:55:20;5.55;;;2.50;;
59308;SDS011;48433;53.016;-2.260;2022-08-11T19:58:07;7.25;;;3.17;;
59308;SDS011;48433;53.016;-2.260;2022-08-11T20:00:54;10.88;;;3.08;;